createdAt,value
2019-01-10T00:02:25.260Z,2.24
2019-01-10T00:07:33.123Z,2.10
2019-01-10T00:12:40.777Z,2.22
2019-01-10T00:17:50.081Z,2.08
2019-01-10T00:22:55.688Z,2.24
2019-01-10T00:28:03.397Z,1.91
2019-01-10T00:33:11.110Z,1.99
2019-01-10T00:38:18.756Z,2.29
2019-01-10T00:43:26.664Z,2.18
2019-01-10T00:48:35.293Z,2.22
2019-01-10T00:53:42.953Z,2.30
2019-01-10T00:58:50.793Z,2.04
2019-01-10T01:03:58.534Z,2.05
2019-01-10T01:09:06.168Z,2.15
2019-01-10T01:14:14.094Z,2.51
2019-01-10T01:19:21.751Z,2.10
2019-01-10T01:24:29.612Z,1.95
2019-01-10T01:29:37.437Z,2.26
2019-01-10T01:34:45.269Z,1.85
2019-01-10T01:39:52.926Z,2.13
2019-01-10T01:45:01.918Z,1.86
2019-01-10T01:50:09.705Z,2.29
2019-01-10T01:55:17.374Z,2.22
2019-01-10T02:00:25.085Z,2.20
2019-01-10T02:05:32.770Z,2.11
2019-01-10T02:10:40.866Z,1.86
2019-01-10T02:15:48.709Z,2.31
2019-01-10T02:20:57.369Z,2.22
2019-01-10T02:26:05.106Z,2.20
2019-01-10T02:31:12.809Z,2.32
2019-01-10T02:36:20.403Z,2.19
2019-01-10T02:41:28.236Z,2.03
2019-01-10T02:46:36.686Z,2.27
2019-01-10T02:51:46.741Z,2.29
2019-01-10T02:56:44.269Z,2.34
2019-01-10T03:01:53.114Z,2.57
2019-01-10T03:07:00.725Z,2.34
2019-01-10T03:12:08.416Z,2.23
2019-01-10T03:17:16.184Z,2.17
2019-01-10T03:22:26.230Z,2.15
2019-01-10T03:27:25.023Z,3.56
2019-01-10T03:32:32.675Z,2.26
2019-01-10T03:37:40.454Z,2.43
2019-01-10T03:42:48.282Z,2.22
2019-01-10T03:47:55.984Z,2.33
2019-01-10T03:53:03.796Z,2.37
2019-01-10T03:58:11.618Z,2.38
2019-01-10T04:03:19.266Z,2.63
2019-01-10T04:08:26.906Z,2.48
2019-01-10T04:13:34.897Z,2.48
2019-01-10T04:18:42.575Z,2.24
2019-01-10T04:23:51.218Z,2.54
2019-01-10T04:28:58.913Z,2.37
2019-01-10T04:34:07.724Z,2.73
2019-01-10T04:39:15.612Z,2.90
2019-01-10T04:44:23.694Z,2.68
2019-01-10T04:49:31.401Z,2.82
2019-01-10T04:54:39.306Z,2.54
2019-01-10T04:59:47.001Z,2.78
2019-01-10T05:04:54.938Z,2.87
2019-01-10T05:10:02.701Z,3.04
2019-01-10T05:15:10.594Z,2.88
2019-01-10T05:20:18.264Z,2.75
2019-01-10T05:25:27.046Z,2.92
2019-01-10T05:30:34.749Z,3.06
2019-01-10T05:35:42.448Z,3.10
2019-01-10T05:40:50.145Z,2.90
2019-01-10T05:45:57.882Z,3.06
2019-01-10T05:51:05.494Z,3.13
2019-01-10T05:56:15.689Z,3.20
2019-01-10T06:01:20.666Z,3.17
2019-01-10T06:06:28.294Z,3.21
2019-01-10T06:11:35.882Z,4.68
2019-01-10T06:16:45.204Z,3.51
2019-01-10T06:21:50.749Z,3.54
2019-01-10T06:26:58.577Z,3.20
2019-01-10T06:32:06.331Z,3.21
2019-01-10T06:37:13.948Z,3.37
2019-01-10T06:42:21.539Z,3.29
2019-01-10T06:47:29.397Z,3.22
2019-01-10T06:52:37.111Z,3.57
2019-01-10T06:57:46.033Z,3.74
2019-01-10T07:02:53.766Z,4.83
2019-01-10T07:08:01.446Z,4.49
2019-01-10T07:13:09.206Z,4.70
2019-01-10T07:18:16.830Z,4.27
2019-01-10T07:23:24.541Z,4.16
2019-01-10T07:28:32.243Z,4.22
2019-01-10T07:33:39.859Z,3.87
2019-01-10T07:38:47.488Z,4.34
2019-01-10T07:43:55.145Z,4.40
2019-01-10T07:49:02.865Z,4.79
2019-01-10T07:54:10.562Z,4.60
2019-01-10T07:59:18.237Z,4.31
2019-01-10T08:04:25.949Z,4.26
2019-01-10T08:09:33.553Z,4.38
2019-01-10T08:14:41.193Z,3.89
2019-01-10T08:19:50.874Z,4.42
2019-01-10T08:24:59.623Z,5.26
2019-01-10T08:30:07.193Z,4.54
2019-01-10T08:35:15.831Z,4.09
2019-01-10T08:40:23.460Z,3.85
2019-01-10T08:45:32.321Z,3.87
2019-01-10T08:50:39.933Z,4.05
2019-01-10T08:55:47.549Z,4.36
2019-01-10T09:00:56.493Z,4.09
2019-01-10T09:06:08.320Z,3.89
2019-01-10T09:11:11.625Z,4.38
2019-01-10T09:16:19.525Z,3.83
2019-01-10T09:21:27.258Z,3.76
2019-01-10T09:26:37.612Z,3.92
2019-01-10T09:31:42.429Z,3.71
2019-01-10T09:36:50.049Z,3.74
2019-01-10T09:41:57.677Z,4.60
2019-01-10T09:47:05.425Z,5.49
2019-01-10T09:52:13.061Z,5.22
2019-01-10T09:57:21.001Z,4.49
2019-01-10T10:02:28.677Z,4.47
2019-01-10T10:07:36.248Z,4.19
2019-01-10T10:12:43.966Z,4.17
2019-01-10T10:17:51.691Z,4.30
2019-01-10T10:22:59.405Z,3.89
2019-01-10T10:28:06.997Z,4.31
2019-01-10T10:33:15.725Z,4.51
2019-01-10T10:38:23.524Z,3.74
2019-01-10T10:43:31.137Z,3.83
2019-01-10T10:48:38.753Z,3.93
2019-01-10T10:53:46.529Z,3.69
2019-01-10T10:58:54.258Z,3.38
2019-01-10T11:04:02.054Z,3.26
2019-01-10T11:09:09.731Z,3.32
2019-01-10T11:14:17.397Z,3.33
2019-01-10T11:19:25.089Z,3.40
2019-01-10T11:24:32.865Z,3.31
2019-01-10T11:29:40.534Z,3.62
2019-01-10T11:34:48.357Z,3.14
2019-01-10T11:39:55.928Z,3.24
2019-01-10T11:45:03.428Z,3.17
2019-01-10T11:50:11.464Z,3.39
2019-01-10T11:55:19.215Z,3.38
2019-01-10T12:00:26.845Z,3.33
2019-01-10T12:05:34.715Z,3.17
2019-01-10T12:10:42.533Z,3.14
2019-01-10T12:15:50.347Z,2.90
2019-01-10T12:20:57.926Z,2.88
2019-01-10T12:26:05.820Z,3.10
2019-01-10T12:31:13.573Z,2.89
2019-01-10T12:36:21.274Z,3.01
2019-01-10T12:41:28.905Z,2.90
2019-01-10T12:46:37.628Z,3.34
2019-01-10T12:51:43.926Z,3.02
2019-01-10T12:56:52.725Z,3.14
2019-01-10T13:02:02.248Z,3.45
2019-01-10T13:07:07.647Z,3.52
2019-01-10T13:12:15.353Z,3.34
2019-01-10T13:17:23.913Z,3.34
2019-01-10T13:22:31.613Z,3.31
2019-01-10T13:27:39.417Z,3.19
2019-01-10T13:32:47.025Z,3.41
2019-01-10T13:37:54.786Z,3.09
2019-01-10T13:43:02.445Z,3.08
2019-01-10T13:48:10.337Z,2.73
2019-01-10T13:53:18.204Z,2.73
2019-01-10T13:58:28.067Z,2.84
2019-01-10T14:03:35.758Z,2.77
2019-01-10T14:08:43.553Z,2.71
2019-01-10T14:13:51.241Z,3.02
2019-01-10T14:18:58.918Z,2.86
2019-01-10T14:24:06.625Z,2.99
2019-01-10T14:29:15.669Z,3.12
2019-01-10T14:34:22.856Z,3.10
2019-01-10T14:39:30.485Z,2.91
2019-01-10T14:44:38.242Z,2.90
2019-01-10T14:49:46.063Z,3.22
2019-01-10T14:54:56.828Z,3.22
2019-01-10T14:59:54.525Z,2.95
2019-01-10T15:05:02.229Z,3.12
2019-01-10T15:10:09.876Z,3.37
2019-01-10T15:15:18.604Z,3.06
2019-01-10T15:20:26.325Z,3.44
2019-01-10T15:25:34.046Z,3.95
2019-01-10T15:30:41.822Z,3.02
2019-01-10T15:35:50.455Z,3.85
2019-01-10T15:40:58.558Z,3.63
2019-01-10T15:46:07.317Z,3.38
2019-01-10T15:51:15.322Z,3.18
2019-01-10T15:56:22.901Z,3.25
2019-01-10T16:01:30.984Z,3.60
2019-01-10T16:06:52.144Z,3.99
2019-01-10T16:11:40.087Z,3.54
2019-01-10T16:16:47.714Z,2.99
2019-01-10T16:21:56.617Z,3.31
2019-01-10T16:27:04.561Z,3.56
2019-01-10T16:32:12.302Z,3.67
2019-01-10T16:37:20.195Z,3.94
2019-01-10T16:42:28.202Z,3.74
2019-01-10T16:47:36.019Z,3.87
2019-01-10T16:52:43.701Z,4.09
2019-01-10T16:57:51.438Z,4.30
2019-01-10T17:03:01.058Z,4.46
2019-01-10T17:08:08.777Z,4.05
2019-01-10T17:13:16.525Z,3.88
2019-01-10T17:18:24.269Z,3.62
2019-01-10T17:23:33.285Z,3.32
2019-01-10T17:28:41.045Z,3.48
2019-01-10T17:33:48.864Z,3.46
2019-01-10T17:38:56.545Z,3.32
2019-01-10T17:44:04.337Z,2.94
2019-01-10T17:49:12.390Z,3.03
2019-01-10T17:54:21.073Z,3.44
2019-01-10T17:59:28.961Z,3.13
2019-01-10T18:04:37.011Z,3.07
2019-01-10T18:09:44.937Z,3.22
2019-01-10T18:14:52.834Z,3.45
2019-01-10T18:20:00.430Z,3.27
2019-01-10T18:25:11.167Z,3.25
2019-01-10T18:30:08.761Z,3.29
2019-01-10T18:35:16.530Z,3.23
2019-01-10T18:40:24.347Z,2.97
2019-01-10T18:45:32.102Z,3.22
2019-01-10T18:50:40.782Z,3.62
2019-01-10T18:55:48.458Z,3.51
2019-01-10T19:00:57.175Z,3.16
2019-01-10T19:06:03.468Z,3.24
2019-01-10T19:11:11.176Z,3.32
2019-01-10T19:16:19.050Z,3.68
2019-01-10T19:21:26.768Z,3.64
2019-01-10T19:26:34.437Z,3.37
2019-01-10T19:31:42.225Z,3.67
2019-01-10T19:36:50.049Z,3.70
2019-01-10T19:41:57.680Z,3.55
2019-01-10T19:47:05.421Z,4.20
2019-01-10T19:52:13.189Z,4.52
2019-01-10T19:57:20.840Z,4.31
2019-01-10T20:02:28.494Z,4.51
2019-01-10T20:07:36.389Z,4.70
2019-01-10T20:12:44.168Z,4.84
2019-01-10T20:17:52.023Z,5.60
2019-01-10T20:23:00.827Z,5.03
2019-01-10T20:28:08.601Z,5.66
2019-01-10T20:33:16.326Z,6.44
2019-01-10T20:38:24.087Z,5.36
2019-01-10T20:43:31.747Z,5.64
2019-01-10T20:48:39.503Z,5.41
2019-01-10T20:53:47.348Z,6.80
2019-01-10T20:58:55.222Z,6.17
2019-01-10T21:04:03.135Z,6.02
2019-01-10T21:09:13.161Z,6.19
2019-01-10T21:14:18.318Z,6.72
2019-01-10T21:19:26.189Z,6.52
2019-01-10T21:24:34.096Z,7.26
2019-01-10T21:29:41.927Z,6.37
2019-01-10T21:34:49.598Z,7.01
2019-01-10T21:39:57.506Z,6.62
2019-01-10T21:45:05.364Z,5.85
2019-01-10T21:50:13.064Z,6.20
2019-01-10T21:55:20.892Z,5.81
2019-01-10T22:00:28.514Z,7.05
2019-01-10T22:05:36.446Z,6.88
2019-01-10T22:10:44.410Z,6.23
2019-01-10T22:15:52.133Z,6.49
2019-01-10T22:20:59.957Z,6.78
2019-01-10T22:26:07.750Z,6.58
2019-01-10T22:31:15.548Z,7.87
2019-01-10T22:36:23.146Z,7.76
2019-01-10T22:41:30.922Z,7.04
2019-01-10T22:46:38.637Z,7.37
2019-01-10T22:51:46.398Z,6.22
2019-01-10T22:56:54.169Z,7.04
2019-01-10T23:02:02.367Z,7.59
2019-01-10T23:07:09.994Z,7.58
2019-01-10T23:12:17.689Z,8.30
2019-01-10T23:17:25.430Z,7.99
2019-01-10T23:22:33.162Z,8.27
2019-01-10T23:27:40.841Z,8.68
2019-01-10T23:32:48.660Z,8.39
2019-01-10T23:37:56.333Z,7.73
2019-01-10T23:43:04.133Z,9.22
2019-01-10T23:48:11.896Z,9.03
2019-01-10T23:53:19.586Z,8.78
2019-01-10T23:58:27.250Z,9.50
